createdAt,value
2017-12-20T00:02:20.158Z,29.27
2017-12-20T00:04:49.306Z,26.92
2017-12-20T00:07:18.577Z,29.70
2017-12-20T00:09:48.432Z,34.92
2017-12-20T00:12:17.604Z,29.67
2017-12-20T00:14:46.705Z,32.28
2017-12-20T00:17:15.733Z,34.03
2017-12-20T00:19:45.592Z,28.55
2017-12-20T00:22:15.677Z,32.15
2017-12-20T00:24:44.719Z,30.42
2017-12-20T00:27:13.831Z,28.98
2017-12-20T00:29:43.643Z,29.87
2017-12-20T00:32:12.798Z,36.13
2017-12-20T00:34:41.894Z,31.00
2017-12-20T00:37:10.983Z,30.62
2017-12-20T00:39:40.308Z,33.92
2017-12-20T00:42:10.312Z,34.70
2017-12-20T00:44:39.464Z,34.67
2017-12-20T00:47:09.339Z,33.83
2017-12-20T00:49:38.475Z,38.63
2017-12-20T00:52:08.365Z,37.58
2017-12-20T00:54:37.440Z,31.40
2017-12-20T00:57:08.031Z,40.40
2017-12-20T00:59:37.172Z,32.13
2017-12-20T01:02:06.817Z,34.25
2017-12-20T01:04:36.614Z,33.60
2017-12-20T01:07:05.753Z,35.83
2017-12-20T01:09:34.825Z,30.30
2017-12-20T01:12:04.616Z,43.25
2017-12-20T01:14:33.712Z,34.83
2017-12-20T01:17:02.818Z,32.97
2017-12-20T01:19:31.997Z,30.92
2017-12-20T01:22:00.975Z,32.85
2017-12-20T01:24:30.776Z,29.45
2017-12-20T01:27:00.551Z,32.53
2017-12-20T01:29:29.552Z,26.17
2017-12-20T01:31:58.481Z,25.98
2017-12-20T01:34:28.229Z,23.80
2017-12-20T01:36:57.157Z,22.40
2017-12-20T01:39:26.088Z,24.30
2017-12-20T01:41:55.107Z,32.97
2017-12-20T01:44:24.104Z,27.85
2017-12-20T01:46:53.047Z,26.02
2017-12-20T01:49:22.800Z,24.85
2017-12-20T01:51:51.760Z,28.05
2017-12-20T01:54:21.509Z,26.98
2017-12-20T01:56:50.622Z,22.27
2017-12-20T01:59:19.601Z,25.40
2017-12-20T02:01:48.557Z,21.60
2017-12-20T02:04:17.527Z,20.25
2017-12-20T02:06:46.535Z,21.25
2017-12-20T02:09:16.245Z,26.52
2017-12-20T02:11:46.020Z,20.52
2017-12-20T02:14:15.041Z,21.00
2017-12-20T02:16:44.816Z,20.95
2017-12-20T02:19:13.905Z,22.15
2017-12-20T02:21:42.899Z,18.60
2017-12-20T02:24:11.991Z,18.92
2017-12-20T02:26:43.851Z,20.48
2017-12-20T02:29:12.920Z,17.92
2017-12-20T02:31:42.009Z,13.00
2017-12-20T02:34:11.099Z,18.67
2017-12-20T02:36:40.196Z,18.83
2017-12-20T02:39:10.136Z,16.10
2017-12-20T02:41:39.423Z,13.90
2017-12-20T02:44:08.555Z,14.93
2017-12-20T02:46:37.544Z,13.52
2017-12-20T02:49:06.604Z,13.02
2017-12-20T02:51:35.797Z,15.80
2017-12-20T02:54:04.848Z,12.98
2017-12-20T02:56:34.698Z,12.88
2017-12-20T02:59:03.776Z,14.38
2017-12-20T03:01:33.531Z,12.27
2017-12-20T03:04:02.543Z,13.02
2017-12-20T03:06:31.570Z,12.77
2017-12-20T03:09:01.433Z,13.43
2017-12-20T03:11:30.564Z,13.93
2017-12-20T03:13:59.659Z,10.95
2017-12-20T03:16:28.674Z,11.73
2017-12-20T03:18:58.397Z,12.68
2017-12-20T03:21:28.168Z,12.02
2017-12-20T03:23:57.921Z,11.57
2017-12-20T03:26:26.904Z,12.07
2017-12-20T03:28:55.849Z,12.73
2017-12-20T03:31:24.857Z,11.80
2017-12-20T03:33:54.793Z,11.93
2017-12-20T03:36:24.520Z,9.18
2017-12-20T03:42:26.135Z,10.68
2017-12-20T03:44:55.124Z,10.30
2017-12-20T03:47:24.108Z,11.65
2017-12-20T03:49:53.089Z,10.70
2017-12-20T03:52:22.153Z,10.57
2017-12-20T03:54:51.977Z,11.12
2017-12-20T03:57:20.942Z,12.02
2017-12-20T03:59:49.943Z,10.55
2017-12-20T04:02:19.679Z,10.45
2017-12-20T04:04:48.703Z,9.73
2017-12-20T04:07:17.716Z,12.73
2017-12-20T04:09:46.665Z,8.35
2017-12-20T04:12:15.610Z,7.37
2017-12-20T04:14:44.616Z,7.10
2017-12-20T04:17:14.378Z,7.53
2017-12-20T04:19:43.344Z,7.95
2017-12-20T04:22:12.420Z,10.32
2017-12-20T04:24:42.180Z,9.25
2017-12-20T04:27:11.147Z,7.20
2017-12-20T04:29:40.113Z,7.22
2017-12-20T04:32:09.891Z,10.10
2017-12-20T04:34:38.836Z,9.93
2017-12-20T04:37:07.801Z,6.85
2017-12-20T04:39:37.518Z,10.50
2017-12-20T04:42:07.256Z,9.82
2017-12-20T04:44:36.317Z,11.30
2017-12-20T04:47:06.061Z,9.80
2017-12-20T04:49:35.020Z,7.53
2017-12-20T04:52:04.753Z,9.50
2017-12-20T04:54:34.020Z,11.18
2017-12-20T04:57:03.799Z,10.73
2017-12-20T04:59:32.761Z,9.35
2017-12-20T05:02:05.749Z,10.30
2017-12-20T05:04:34.666Z,9.70
2017-12-20T05:07:03.728Z,10.55
2017-12-20T05:10:35.377Z,8.23
2017-12-20T05:13:05.076Z,6.47
2017-12-20T05:15:34.837Z,7.10
2017-12-20T05:18:03.835Z,5.90
2017-12-20T05:20:32.763Z,6.97
2017-12-20T05:23:01.799Z,8.68
2017-12-20T05:25:30.774Z,6.07
2017-12-20T05:28:01.245Z,7.05
2017-12-20T05:30:30.188Z,6.55
2017-12-20T05:32:59.909Z,7.78
2017-12-20T05:35:28.842Z,6.18
2017-12-20T05:37:57.792Z,7.03
2017-12-20T05:40:26.772Z,7.62
2017-12-20T05:42:56.462Z,9.27
2017-12-20T05:45:25.416Z,7.35
2017-12-20T05:47:54.509Z,8.32
2017-12-20T05:50:23.708Z,6.93
2017-12-20T05:52:52.720Z,6.50
2017-12-20T05:55:22.005Z,7.65
2017-12-20T05:57:51.019Z,6.57
2017-12-20T06:00:20.097Z,5.43
2017-12-20T06:02:49.121Z,7.72
2017-12-20T06:05:18.208Z,6.20
2017-12-20T06:07:47.238Z,6.60
2017-12-20T06:10:16.206Z,7.82
2017-12-20T06:12:45.185Z,8.20
2017-12-20T06:15:14.151Z,5.53
2017-12-20T06:17:43.176Z,6.25
2017-12-20T06:20:12.160Z,6.05
2017-12-20T06:22:41.246Z,6.53
2017-12-20T06:25:11.123Z,5.68
2017-12-20T06:27:40.125Z,5.68
2017-12-20T06:30:09.112Z,7.15
2017-12-20T06:32:38.067Z,5.60
2017-12-20T06:35:07.948Z,5.30
2017-12-20T06:37:38.820Z,6.32
2017-12-20T06:40:08.578Z,4.50
2017-12-20T06:42:38.355Z,4.60
2017-12-20T06:45:08.182Z,4.90
2017-12-20T06:47:37.140Z,4.57
2017-12-20T06:50:06.905Z,4.97
2017-12-20T06:52:35.902Z,4.45
2017-12-20T06:55:06.206Z,4.95
2017-12-20T06:57:35.435Z,4.87
2017-12-20T07:00:10.242Z,5.12
2017-12-20T07:02:39.234Z,5.25
2017-12-20T07:05:08.312Z,5.03
2017-12-20T07:07:38.043Z,5.85
2017-12-20T07:10:07.800Z,4.93
2017-12-20T07:12:36.778Z,5.10
2017-12-20T07:15:05.783Z,5.32
2017-12-20T07:17:34.792Z,6.68
2017-12-20T07:20:04.596Z,5.32
2017-12-20T07:22:34.901Z,5.62
2017-12-20T07:25:08.718Z,4.25
2017-12-20T07:27:38.861Z,5.10
2017-12-20T07:30:17.683Z,5.12
2017-12-20T07:32:47.663Z,5.50
2017-12-20T07:35:17.536Z,4.90
2017-12-20T07:37:47.428Z,4.60
2017-12-20T07:40:17.628Z,4.50
2017-12-20T07:42:47.484Z,4.97
2017-12-20T07:45:16.770Z,4.43
2017-12-20T07:47:52.999Z,5.30
2017-12-20T07:50:22.321Z,4.70
2017-12-20T07:52:51.686Z,5.72
2017-12-20T07:55:21.567Z,5.20
2017-12-20T07:57:51.001Z,6.00
2017-12-20T08:00:20.051Z,4.53
2017-12-20T08:02:49.026Z,4.32
2017-12-20T08:05:18.777Z,4.40
2017-12-20T08:07:47.816Z,5.00
2017-12-20T08:10:17.579Z,4.93
2017-12-20T08:12:47.073Z,6.40
2017-12-20T08:15:16.052Z,7.07
2017-12-20T08:17:51.046Z,7.22
2017-12-20T08:20:20.066Z,5.37
2017-12-20T08:22:49.854Z,6.20
2017-12-20T08:25:18.939Z,7.53
2017-12-20T08:27:48.035Z,5.70
2017-12-20T08:30:17.908Z,5.40
2017-12-20T08:32:48.952Z,6.82
2017-12-20T08:35:18.064Z,6.12
2017-12-20T08:37:50.083Z,5.82
2017-12-20T08:40:19.997Z,5.55
2017-12-20T08:42:49.054Z,5.28
2017-12-20T08:45:18.086Z,4.25
2017-12-20T08:47:47.942Z,5.85
2017-12-20T08:50:16.908Z,4.40
2017-12-20T08:52:46.051Z,5.10
2017-12-20T08:55:15.781Z,7.37
2017-12-20T08:57:44.773Z,5.30
2017-12-20T09:00:13.905Z,5.25
2017-12-20T09:02:43.177Z,6.57
2017-12-20T09:05:12.967Z,4.53
2017-12-20T09:07:42.311Z,3.95
2017-12-20T09:10:11.685Z,4.72
2017-12-20T09:12:41.600Z,4.80
2017-12-20T09:15:11.392Z,4.53
2017-12-20T09:20:14.068Z,4.30
2017-12-20T09:22:43.065Z,4.85
2017-12-20T09:25:12.160Z,3.95
2017-12-20T09:27:41.245Z,4.82
2017-12-20T09:30:10.368Z,4.90
2017-12-20T09:32:40.279Z,6.40
2017-12-20T09:35:09.343Z,4.60
2017-12-20T09:37:38.400Z,5.47
2017-12-20T09:40:08.285Z,7.35
2017-12-20T09:42:37.820Z,5.45
2017-12-20T09:45:07.028Z,4.75
2017-12-20T09:47:36.074Z,8.20
2017-12-20T09:50:05.253Z,5.50
2017-12-20T09:52:34.267Z,6.50
2017-12-20T09:55:03.850Z,6.53
2017-12-20T09:57:32.911Z,5.28
2017-12-20T10:00:03.319Z,4.37
2017-12-20T10:02:48.302Z,5.03
2017-12-20T10:05:20.153Z,4.60
2017-12-20T10:07:53.438Z,5.53
2017-12-20T10:10:23.656Z,6.72
2017-12-20T10:12:53.556Z,5.50
2017-12-20T10:15:23.777Z,5.37
2017-12-20T10:17:52.915Z,5.82
2017-12-20T10:20:22.803Z,6.32
2017-12-20T10:22:59.483Z,6.60
2017-12-20T10:25:29.729Z,6.60
2017-12-20T10:27:59.644Z,7.47
2017-12-20T10:30:29.582Z,6.80
2017-12-20T10:32:58.589Z,5.95
2017-12-20T10:35:27.656Z,7.32
2017-12-20T10:37:56.905Z,7.93
2017-12-20T10:40:27.744Z,6.97
2017-12-20T10:42:57.667Z,6.30
2017-12-20T10:45:27.518Z,6.10
2017-12-20T10:47:56.647Z,6.40
2017-12-20T10:50:25.844Z,5.37
2017-12-20T10:52:54.928Z,6.20
2017-12-20T10:55:23.948Z,6.75
2017-12-20T10:57:53.073Z,5.68
2017-12-20T11:00:24.081Z,5.57
2017-12-20T11:02:59.147Z,6.35
2017-12-20T11:05:29.098Z,6.40
2017-12-20T11:07:58.228Z,6.97
2017-12-20T11:10:27.348Z,6.20
2017-12-20T11:12:57.202Z,6.80
2017-12-20T11:15:26.460Z,6.62
2017-12-20T11:17:56.338Z,7.80
2017-12-20T11:20:25.450Z,7.20
2017-12-20T11:22:55.351Z,6.90
2017-12-20T11:25:24.837Z,8.15
2017-12-20T11:27:53.939Z,7.50
2017-12-20T11:30:22.969Z,7.95
2017-12-20T11:32:52.045Z,10.18
2017-12-20T11:35:21.948Z,8.45
2017-12-20T11:37:51.401Z,8.32
2017-12-20T11:40:21.467Z,9.35
2017-12-20T11:42:50.523Z,9.77
2017-12-20T11:45:20.410Z,11.00
2017-12-20T11:47:50.453Z,11.30
2017-12-20T11:50:19.617Z,9.98
2017-12-20T11:52:48.789Z,11.77
2017-12-20T11:55:18.090Z,10.65
2017-12-20T11:57:47.824Z,11.02
2017-12-20T12:00:18.942Z,11.20
2017-12-20T12:02:48.974Z,13.10
2017-12-20T12:05:18.266Z,13.20
2017-12-20T12:07:47.374Z,16.30
2017-12-20T12:10:17.778Z,15.38
2017-12-20T12:12:47.649Z,14.00
2017-12-20T12:15:17.649Z,11.15
2017-12-20T12:17:47.480Z,12.27
2017-12-20T12:20:17.675Z,13.50
2017-12-20T12:22:46.893Z,11.25
2017-12-20T12:25:16.038Z,9.88
2017-12-20T12:27:45.888Z,10.30
2017-12-20T12:30:15.807Z,11.40
2017-12-20T12:32:46.243Z,11.73
2017-12-20T12:35:19.227Z,12.07
2017-12-20T12:37:49.067Z,12.00
2017-12-20T12:40:18.231Z,15.10
2017-12-20T12:42:48.196Z,13.80
2017-12-20T12:45:18.112Z,13.27
2017-12-20T12:47:55.611Z,12.43
2017-12-20T12:50:25.070Z,13.00
2017-12-20T12:52:54.249Z,13.50
2017-12-20T12:55:24.080Z,13.85
2017-12-20T12:57:54.848Z,14.98
2017-12-20T13:00:24.767Z,15.63
2017-12-20T13:02:55.150Z,16.65
2017-12-20T13:05:25.167Z,15.30
2017-12-20T13:07:57.833Z,16.15
2017-12-20T13:10:27.730Z,14.63
2017-12-20T13:12:57.805Z,18.60
2017-12-20T13:15:26.969Z,17.73
2017-12-20T13:18:03.204Z,14.48
2017-12-20T13:20:40.450Z,15.55
2017-12-20T13:23:09.914Z,17.70
2017-12-20T13:25:39.138Z,18.45
2017-12-20T13:28:11.491Z,18.08
2017-12-20T13:30:44.236Z,17.58
2017-12-20T13:33:23.752Z,18.87
2017-12-20T13:35:54.898Z,21.80
2017-12-20T13:38:24.831Z,19.85
2017-12-20T13:40:55.015Z,17.73
2017-12-20T13:43:25.264Z,22.75
2017-12-20T13:45:55.176Z,21.90
2017-12-20T13:48:25.085Z,20.27
2017-12-20T13:50:54.184Z,18.08
2017-12-20T13:53:27.840Z,17.58
2017-12-20T13:55:57.779Z,16.70
2017-12-20T13:58:36.230Z,19.75
2017-12-20T14:01:06.172Z,21.23
2017-12-20T14:03:45.649Z,18.52
2017-12-20T14:06:14.849Z,18.35
2017-12-20T14:08:44.643Z,17.17
2017-12-20T14:11:23.798Z,16.58
2017-12-20T14:13:53.356Z,17.33
2017-12-20T14:16:22.457Z,18.40
2017-12-20T14:18:57.883Z,16.23
2017-12-20T14:21:27.686Z,16.77
2017-12-20T14:23:56.882Z,13.60
2017-12-20T14:26:27.827Z,17.37
2017-12-20T14:28:56.929Z,17.15
2017-12-20T14:31:26.698Z,19.50
2017-12-20T14:33:55.760Z,14.93
2017-12-20T14:36:24.895Z,14.70
2017-12-20T14:38:53.975Z,17.67
2017-12-20T14:41:25.212Z,18.15
2017-12-20T14:43:56.563Z,17.05
2017-12-20T14:46:31.238Z,16.17
2017-12-20T14:49:01.047Z,16.70
2017-12-20T14:51:30.334Z,20.25
2017-12-20T14:53:59.691Z,16.90
2017-12-20T14:56:28.883Z,20.25
2017-12-20T14:58:58.001Z,19.62
2017-12-20T15:01:27.921Z,18.08
2017-12-20T15:03:57.115Z,16.75
2017-12-20T15:06:26.991Z,18.20
2017-12-20T15:08:56.898Z,17.15
2017-12-20T15:11:26.043Z,18.92
2017-12-20T15:13:55.206Z,18.37
2017-12-20T15:16:25.137Z,16.90
2017-12-20T15:18:54.286Z,17.62
2017-12-20T15:21:23.522Z,20.45
2017-12-20T15:23:53.341Z,18.65
2017-12-20T15:26:23.566Z,22.25
2017-12-20T15:28:52.743Z,16.55
2017-12-20T15:31:22.796Z,18.60
2017-12-20T15:33:52.704Z,23.55
2017-12-20T15:36:21.734Z,23.48
2017-12-20T15:38:50.935Z,23.52
2017-12-20T15:41:20.170Z,20.95
2017-12-20T15:43:49.983Z,16.87
2017-12-20T15:46:19.837Z,22.87
2017-12-20T15:48:48.858Z,22.83
2017-12-20T15:51:23.917Z,19.23
2017-12-20T15:53:53.215Z,21.40
2017-12-20T15:56:24.264Z,22.73
2017-12-20T15:58:54.192Z,22.75
2017-12-20T16:01:24.082Z,20.10
2017-12-20T16:03:54.016Z,18.20
2017-12-20T16:06:24.325Z,19.02
2017-12-20T16:08:54.212Z,18.90
2017-12-20T16:11:23.347Z,20.85
2017-12-20T16:13:52.550Z,21.33
2017-12-20T16:16:28.113Z,19.50
2017-12-20T16:18:57.228Z,17.65
2017-12-20T16:21:26.308Z,18.02
2017-12-20T16:24:05.209Z,18.25
2017-12-20T16:26:35.259Z,19.35
2017-12-20T16:29:05.010Z,21.08
2017-12-20T16:31:34.222Z,19.02
2017-12-20T16:34:04.232Z,19.40
2017-12-20T16:36:33.508Z,21.95
2017-12-20T16:39:02.790Z,21.77
2017-12-20T16:41:32.009Z,20.92
2017-12-20T16:44:01.958Z,17.60
2017-12-20T16:46:31.872Z,18.85
2017-12-20T16:49:01.772Z,20.80
2017-12-20T16:51:30.962Z,21.35
2017-12-20T16:54:00.819Z,20.50
2017-12-20T16:56:29.878Z,22.48
2017-12-20T16:58:58.866Z,22.55
2017-12-20T17:01:28.751Z,22.85
2017-12-20T17:03:58.743Z,21.10
2017-12-20T17:06:30.307Z,23.55
2017-12-20T17:09:06.593Z,22.40
2017-12-20T17:11:36.272Z,23.42
2017-12-20T17:14:05.388Z,21.15
2017-12-20T17:16:34.484Z,22.25
2017-12-20T17:19:03.698Z,23.20
2017-12-20T17:21:32.778Z,21.98
2017-12-20T17:24:01.823Z,21.73
2017-12-20T17:26:31.655Z,21.95
2017-12-20T17:29:01.629Z,21.30
2017-12-20T17:31:30.712Z,23.08
2017-12-20T17:33:59.792Z,26.75
2017-12-20T17:36:38.196Z,24.35
2017-12-20T17:39:07.314Z,22.55
2017-12-20T17:41:36.616Z,22.35
2017-12-20T17:44:05.757Z,23.73
2017-12-20T17:46:34.908Z,19.42
2017-12-20T17:49:04.097Z,19.20
2017-12-20T17:51:33.670Z,22.35
2017-12-20T17:54:02.764Z,18.42
2017-12-20T17:56:31.800Z,16.60
2017-12-20T17:59:00.848Z,19.12
2017-12-20T18:01:29.982Z,23.75
2017-12-20T18:03:59.798Z,19.98
2017-12-20T18:06:28.912Z,19.48
2017-12-20T18:08:58.135Z,24.15
2017-12-20T18:11:28.232Z,18.75
2017-12-20T18:13:57.312Z,17.83
2017-12-20T18:16:27.331Z,16.10
2017-12-20T18:18:56.540Z,14.82
2017-12-20T18:21:26.123Z,17.75
2017-12-20T18:23:55.973Z,15.38
2017-12-20T18:26:25.853Z,16.00
2017-12-20T18:28:54.964Z,15.43
2017-12-20T18:31:23.985Z,16.70
2017-12-20T18:33:53.778Z,17.05
2017-12-20T18:36:22.863Z,14.68
2017-12-20T18:38:52.623Z,18.62
2017-12-20T18:41:21.657Z,18.58
2017-12-20T18:43:50.799Z,17.08
2017-12-20T18:46:19.780Z,19.05
2017-12-20T18:48:49.619Z,20.00
2017-12-20T18:51:23.026Z,17.87
2017-12-20T18:53:52.059Z,21.80
2017-12-20T18:56:21.144Z,18.77
2017-12-20T18:58:50.361Z,18.98
2017-12-20T19:01:19.558Z,19.90
2017-12-20T19:03:48.667Z,19.70
2017-12-20T19:06:18.566Z,21.25
2017-12-20T19:08:47.782Z,18.25
2017-12-20T19:11:17.549Z,18.42
2017-12-20T19:13:51.337Z,21.87
2017-12-20T19:16:25.560Z,20.60
2017-12-20T19:18:54.566Z,20.85
2017-12-20T19:21:23.677Z,20.77
2017-12-20T19:23:53.468Z,21.52
2017-12-20T19:26:22.593Z,20.83
2017-12-20T19:28:51.592Z,21.33
2017-12-20T19:31:21.390Z,19.65
2017-12-20T19:33:52.078Z,19.50
2017-12-20T19:36:26.925Z,16.62
2017-12-20T19:38:56.132Z,19.25
2017-12-20T19:41:26.143Z,18.80
2017-12-20T19:43:55.146Z,18.58
2017-12-20T19:46:24.157Z,16.70
2017-12-20T19:48:53.235Z,22.80
2017-12-20T19:51:22.280Z,25.42
2017-12-20T19:53:51.502Z,17.55
2017-12-20T19:56:20.790Z,16.33
2017-12-20T19:58:50.785Z,21.85
2017-12-20T20:01:23.981Z,24.55
2017-12-20T20:03:53.084Z,28.92
2017-12-20T20:06:22.261Z,29.63
2017-12-20T20:08:52.179Z,28.45
2017-12-20T20:11:22.255Z,27.92
2017-12-20T20:13:51.670Z,17.33
2017-12-20T20:16:20.664Z,25.12
2017-12-20T20:18:51.416Z,23.48
2017-12-20T20:21:21.208Z,19.30
2017-12-20T20:23:50.386Z,23.52
2017-12-20T20:26:20.711Z,19.35
2017-12-20T20:28:49.803Z,26.27
2017-12-20T20:31:18.862Z,18.55
2017-12-20T20:33:47.917Z,14.32
2017-12-20T20:36:17.072Z,16.77
2017-12-20T20:38:46.110Z,16.48
2017-12-20T20:41:15.175Z,17.50
2017-12-20T20:43:44.172Z,14.45
2017-12-20T20:46:13.229Z,15.38
2017-12-20T20:48:42.252Z,16.92
2017-12-20T20:51:11.265Z,18.80
2017-12-20T20:53:41.058Z,17.58
2017-12-20T20:56:10.615Z,19.20
2017-12-20T20:58:40.675Z,18.20
2017-12-20T21:01:09.712Z,21.35
2017-12-20T21:03:38.806Z,41.97
2017-12-20T21:06:07.785Z,38.47
2017-12-20T21:08:36.778Z,27.08
2017-12-20T21:11:05.779Z,28.35
2017-12-20T21:13:34.766Z,32.15
2017-12-20T21:16:03.793Z,26.12
2017-12-20T21:18:38.828Z,42.95
2017-12-20T21:21:08.686Z,25.60
2017-12-20T21:23:37.751Z,23.77
2017-12-20T21:26:06.858Z,21.20
2017-12-20T21:28:35.894Z,19.37
2017-12-20T21:31:05.687Z,22.67
2017-12-20T21:33:34.746Z,17.87
2017-12-20T21:36:03.781Z,19.17
2017-12-20T21:38:32.800Z,19.20
2017-12-20T21:41:01.759Z,17.15
2017-12-20T21:43:31.069Z,21.95
2017-12-20T21:51:04.173Z,16.08
2017-12-20T21:53:33.142Z,18.40
2017-12-20T21:56:02.178Z,16.92
2017-12-20T21:58:31.418Z,17.20
2017-12-20T22:01:01.378Z,21.75
2017-12-20T22:03:31.291Z,20.95
2017-12-20T22:06:00.747Z,16.02
2017-12-20T22:08:30.537Z,18.37
2017-12-20T22:11:00.460Z,19.85
2017-12-20T22:13:29.636Z,14.75
2017-12-20T22:15:58.662Z,14.95
2017-12-20T22:18:28.585Z,15.75
2017-12-20T22:20:57.573Z,15.80
2017-12-20T22:23:27.340Z,15.13
2017-12-20T22:25:56.342Z,14.87
2017-12-20T22:28:25.389Z,13.90
2017-12-20T22:30:54.398Z,17.48
2017-12-20T22:33:23.377Z,18.80
2017-12-20T22:35:52.425Z,20.55
2017-12-20T22:38:22.769Z,27.08
2017-12-20T22:40:52.511Z,27.42
2017-12-20T22:43:21.481Z,23.87
2017-12-20T22:45:51.363Z,17.45
2017-12-20T22:48:20.306Z,21.87
2017-12-20T22:52:08.536Z,23.05
2017-12-20T22:54:38.263Z,23.33
2017-12-20T22:57:07.315Z,46.80
2017-12-20T22:59:37.110Z,38.53
2017-12-20T23:02:06.118Z,21.92
2017-12-20T23:04:35.107Z,44.40
2017-12-20T23:07:04.100Z,47.22
2017-12-20T23:09:33.094Z,45.85
2017-12-20T23:12:02.079Z,68.07
2017-12-20T23:14:31.031Z,49.15
2017-12-20T23:17:00.032Z,55.38
2017-12-20T23:19:29.106Z,53.28
2017-12-20T23:21:58.114Z,57.17
2017-12-20T23:24:27.206Z,58.90
2017-12-20T23:26:57.000Z,59.83
2017-12-20T23:29:26.752Z,38.22
2017-12-20T23:31:55.718Z,36.53
2017-12-20T23:34:24.731Z,73.82
2017-12-20T23:36:53.707Z,40.80
2017-12-20T23:39:22.724Z,37.28
2017-12-20T23:41:51.643Z,50.12
2017-12-20T23:44:20.605Z,52.60
2017-12-20T23:46:49.715Z,33.80
2017-12-20T23:49:18.741Z,30.88
2017-12-20T23:51:51.368Z,46.33
2017-12-20T23:54:20.337Z,42.47
2017-12-20T23:56:49.318Z,33.65
2017-12-20T23:59:19.026Z,24.73
